Time;durP1;ratioP1;P1;durP2;ratioP2;P2;SDS_P1;SDS_P2;PMS_P1;PMS_P2;Temp;Humidity;BMP_temperature;BMP_pressure;BME280_temperature;BME280_humidity;BME280_pressure;Samples;Min_cycle;Max_cycle;Signal;HPM_P1;HPM_P2
2023/03/05 00:00:45;;;;;;;21.33;13.10;;;;;;;7.59;62.15;101036.75;4965982;28;20807;-80
2023/03/05 00:03:13;;;;;;;19.88;13.27;;;;;;;7.58;62.34;101038.53;4976280;28;20108;-79
2023/03/05 00:05:43;;;;;;;19.08;13.32;;;;;;;7.20;62.69;100980.44;4972224;28;20065;-80
2023/03/05 00:08:09;;;;;;;19.98;13.63;;;;;;;7.52;62.70;101032.84;4974576;28;20057;-80
2023/03/05 00:10:39;;;;;;;23.13;13.60;;;;;;;7.51;62.89;101036.44;4976248;28;20370;-80
2023/03/05 00:13:06;;;;;;;20.77;13.77;;;;;;;7.44;62.97;101028.91;4974398;28;20571;-77
2023/03/05 00:15:41;;;;;;;17.50;12.15;;;;;;;7.23;62.59;100996.06;4976118;28;20137;-80
2023/03/05 00:18:11;;;;;;;17.85;12.52;;;;;;;7.30;63.03;101007.06;4979026;28;20559;-78
2023/03/05 00:20:44;;;;;;;18.05;12.63;;;;;;;7.24;62.82;100998.59;4947780;28;20411;-79
2023/03/05 00:23:11;;;;;;;22.17;13.30;;;;;;;7.26;62.99;101011.72;4969112;28;20456;-80
2023/03/05 00:25:40;;;;;;;21.42;13.43;;;;;;;7.39;63.09;101025.75;4974603;28;20057;-79
2023/03/05 00:28:13;;;;;;;21.52;13.57;;;;;;;7.51;63.69;101036.44;4962326;28;20086;-80
2023/03/05 00:30:40;;;;;;;20.73;12.65;;;;;;;7.34;63.87;100987.41;4973690;28;20252;-79
2023/03/05 00:33:09;;;;;;;21.25;13.35;;;;;;;7.49;63.71;101013.59;4976839;28;20050;-79
2023/03/05 00:35:44;;;;;;;16.27;12.15;;;;;;;7.05;62.50;100935.66;4972438;28;20347;-78
2023/03/05 00:38:12;;;;;;;23.52;11.73;;;;;;;7.68;62.90;101026.38;4980557;28;20081;-78
2023/03/05 00:40:59;;;;;;;20.52;12.27;;;;;;;7.41;62.27;100972.84;4972060;28;20049;-79
2023/03/05 00:43:29;;;;;;;16.42;10.88;;;;;;;7.62;62.05;101002.16;4983948;28;20407;-80
2023/03/05 00:46:07;;;;;;;17.08;11.40;;;;;;;7.27;61.86;100944.72;4976367;28;20274;-79
2023/03/05 00:48:45;;;;;;;18.55;12.50;;;;;;;7.77;61.96;101016.09;4986118;28;20068;-79
2023/03/05 00:51:17;;;;;;;18.85;11.60;;;;;;;7.49;62.21;100966.03;4987258;28;20053;-80
2023/03/05 00:53:51;;;;;;;20.63;11.90;;;;;;;7.73;62.02;100989.06;4974208;28;20804;-80
2023/03/05 00:56:18;;;;;;;19.98;11.57;;;;;;;7.86;61.78;101004.88;4956016;28;20050;-80
2023/03/05 00:58:52;;;;;;;19.60;11.35;;;;;;;7.77;61.55;100977.31;4976122;28;20716;-81
2023/03/05 01:01:19;;;;;;;17.75;11.75;;;;;;;7.85;60.54;100982.06;4967764;28;20363;-81
2023/03/05 01:03:51;;;;;;;17.92;11.95;;;;;;;7.90;60.55;100980.75;4974098;28;20057;-81
2023/03/05 01:06:18;;;;;;;19.08;11.25;;;;;;;8.06;60.17;101000.84;4969195;28;20061;-81
2023/03/05 01:08:44;;;;;;;15.90;11.40;;;;;;;7.73;60.47;100944.13;4990325;28;20050;-80
2023/03/05 01:11:14;;;;;;;17.20;11.13;;;;;;;8.05;60.43;100983.25;4979101;28;20472;-80
2023/03/05 01:13:41;;;;;;;16.88;11.48;;;;;;;8.16;60.09;100991.28;4981889;28;20425;-78
2023/03/05 01:16:15;;;;;;;19.00;10.43;;;;;;;8.04;60.12;100986.88;4977555;28;20577;-79
2023/03/05 01:18:42;;;;;;;15.77;10.68;;;;;;;8.10;60.10;100997.00;4972291;28;20053;-79
2023/03/05 01:21:09;;;;;;;15.25;10.73;;;;;;;7.86;60.42;100946.72;4960636;28;20136;-79
2023/03/05 01:23:36;;;;;;;16.70;10.75;;;;;;;8.02;59.93;100970.28;4962448;28;20060;-80
2023/03/05 01:26:07;;;;;;;16.60;11.15;;;;;;;7.82;60.37;100930.25;4980821;28;20049;-81
2023/03/05 01:28:38;;;;;;;22.25;10.60;;;;;;;8.00;60.68;100961.59;4975787;28;20227;-78
2023/03/05 01:31:09;;;;;;;21.92;11.77;;;;;;;7.76;60.59;100914.00;4962706;28;20315;-80
2023/03/05 01:33:39;;;;;;;15.40;10.07;;;;;;;8.00;60.53;100958.97;4980409;28;20053;-79
2023/03/05 01:36:11;;;;;;;17.75;11.38;;;;;;;7.73;60.59;100904.50;4974728;28;20124;-79
2023/03/05 01:38:45;;;;;;;22.08;11.43;;;;;;;7.96;60.91;100936.34;4977975;28;20553;-79
2023/03/05 01:41:15;;;;;;;19.88;12.50;;;;;;;8.09;60.48;100953.00;4985871;28;20050;-78
2023/03/05 01:43:42;;;;;;;16.80;10.80;;;;;;;8.10;61.26;100960.81;4987650;28;20378;-79
2023/03/05 01:46:48;;;;;;;20.65;11.90;;;;;;;8.11;60.59;100961.69;4976427;28;20096;-78
2023/03/05 01:49:29;;;;;;;22.60;12.27;;;;;;;8.11;60.99;100961.69;4941583;28;20104;-79
2023/03/05 01:52:16;;;;;;;14.98;10.00;;;;;;;8.19;61.72;100938.16;5000457;28;20312;-79
2023/03/05 01:54:55;;;;;;;16.75;12.45;;;;;;;8.31;61.42;100957.56;4978769;28;20453;-79
2023/03/05 01:57:39;;;;;;;16.33;11.48;;;;;;;8.04;61.26;100910.19;4967664;28;20519;-79
2023/03/05 02:00:14;;;;;;;19.20;11.70;;;;;;;8.11;60.79;100937.88;4971347;28;20046;-80
2023/03/05 02:02:54;;;;;;;16.65;11.32;;;;;;;8.04;61.30;100928.69;4976176;28;20609;-80
2023/03/05 02:05:42;;;;;;;16.77;11.27;;;;;;;8.22;62.34;100934.44;4982984;28;20399;-81
2023/03/05 02:08:11;;;;;;;22.55;11.93;;;;;;;7.65;61.73;100838.16;4986209;28;20061;-78
2023/03/05 02:10:41;;;;;;;22.65;11.55;;;;;;;7.80;61.66;100886.41;4994678;28;20316;-80
2023/03/05 02:13:20;;;;;;;21.95;11.93;;;;;;;8.09;61.09;100950.38;4971793;28;20052;-80
2023/03/05 02:15:48;;;;;;;16.52;10.35;;;;;;;7.53;63.03;100820.53;4975510;28;20433;-80
2023/03/05 02:18:29;;;;;;;18.10;11.45;;;;;;;8.19;61.67;100940.78;4965261;28;20579;-80
2023/03/05 02:21:10;;;;;;;16.77;10.88;;;;;;;8.12;61.05;100956.25;4947644;28;20077;-79
2023/03/05 02:23:44;;;;;;;16.38;10.80;;;;;;;7.97;60.92;100954.75;4964650;28;20115;-80
2023/03/05 02:26:18;;;;;;;14.75;11.65;;;;;;;7.85;61.63;100955.63;4969277;28;20446;-79
2023/03/05 02:28:58;;;;;;;18.20;11.55;;;;;;;7.72;61.51;100960.94;4954185;28;20321;-77
2023/03/05 02:31:29;;;;;;;19.67;11.25;;;;;;;7.61;61.12;100952.94;4957194;28;20048;-77
2023/03/05 02:33:59;;;;;;;17.17;10.65;;;;;;;7.43;61.42;100947.16;4973730;28;20303;-78
2023/03/05 02:36:33;;;;;;;14.90;11.23;;;;;;;6.62;61.94;100832.19;4963631;28;20749;-79
2023/03/05 02:39:18;;;;;;;14.57;11.02;;;;;;;7.27;62.65;100944.72;4969068;28;20644;-79
2023/03/05 02:41:55;;;;;;;16.92;11.45;;;;;;;7.27;62.80;100944.72;4963844;28;20053;-78
2023/03/05 02:44:28;;;;;;;17.27;11.73;;;;;;;7.05;62.68;100918.97;4944312;28;20363;-79
2023/03/05 02:46:58;;;;;;;16.50;11.63;;;;;;;7.03;63.21;100911.16;4952666;28;20056;-81
2023/03/05 02:49:46;;;;;;;20.85;11.38;;;;;;;7.30;62.70;100933.94;4906051;28;20367;-79
2023/03/05 02:52:39;;;;;;;15.40;10.48;;;;;;;7.16;62.28;100899.72;4905861;28;20278;-78
2023/03/05 02:55:21;;;;;;;19.38;11.70;;;;;;;7.21;62.33;100929.31;4917552;28;20344;-80
2023/03/05 02:58:00;;;;;;;18.67;11.52;;;;;;;7.03;62.92;100911.16;4933734;28;20292;-80
2023/03/05 03:00:30;;;;;;;17.20;10.93;;;;;;;6.88;62.72;100880.53;4932360;28;20049;-80
2023/03/05 03:03:04;;;;;;;17.50;11.40;;;;;;;6.99;63.20;100909.69;4919022;28;20049;-80
2023/03/05 03:05:43;;;;;;;17.55;11.65;;;;;;;6.96;63.05;100909.88;4931409;28;20076;-78
2023/03/05 03:08:17;;;;;;;26.38;11.20;;;;;;;7.11;63.18;100923.81;4961222;28;20061;-80
2023/03/05 03:10:55;;;;;;;18.67;11.43;;;;;;;6.50;63.11;100828.59;4945008;28;20111;-78
2023/03/05 03:13:24;;;;;;;18.73;11.00;;;;;;;6.80;63.58;100888.16;4928772;28;20300;-79
2023/03/05 03:16:09;;;;;;;14.40;10.88;;;;;;;6.83;63.86;100893.22;4952668;28;20314;-78
2023/03/05 03:18:46;;;;;;;18.15;11.23;;;;;;;6.97;64.14;100935.34;4960789;28;20658;-78
2023/03/05 03:21:23;;;;;;;17.80;11.80;;;;;;;6.78;64.12;100912.00;4964378;28;20054;-79
2023/03/05 03:24:03;;;;;;;17.35;11.65;;;;;;;6.33;64.41;100863.19;4973089;28;20037;-79
2023/03/05 03:26:36;;;;;;;19.38;11.85;;;;;;;6.70;63.95;100929.28;4976920;28;20305;-78
2023/03/05 03:29:11;;;;;;;16.40;11.98;;;;;;;6.56;64.26;100911.75;4933104;28;20849;-78
2023/03/05 03:31:48;;;;;;;19.50;12.32;;;;;;;6.53;65.11;100912.81;4943182;28;20053;-80
2023/03/05 03:34:38;;;;;;;16.70;10.90;;;;;;;6.68;65.00;100937.31;4940567;28;20530;-78
2023/03/05 03:37:06;;;;;;;21.52;12.23;;;;;;;6.31;65.44;100892.31;4938821;28;20837;-81
2023/03/05 03:39:37;;;;;;;18.48;11.30;;;;;;;6.44;65.54;100900.25;4907339;28;20054;-80
2023/03/05 03:42:17;;;;;;;16.67;10.48;;;;;;;6.33;65.55;100895.66;4890173;28;20330;-80
2023/03/05 03:44:46;;;;;;;17.27;11.75;;;;;;;6.56;65.65;100923.16;4931089;28;20053;-79
2023/03/05 03:47:16;;;;;;;16.80;11.07;;;;;;;6.68;65.25;100937.31;4925945;28;20372;-81
2023/03/05 03:49:53;;;;;;;18.70;11.13;;;;;;;6.61;65.81;100928.13;4952046;28;20080;-77
2023/03/05 03:52:25;;;;;;;18.60;12.75;;;;;;;6.34;65.40;100883.34;4955882;28;20053;-81
2023/03/05 03:55:03;;;;;;;17.52;12.75;;;;;;;6.52;65.76;100929.56;4922843;28;20549;-81
2023/03/05 03:57:46;;;;;;;16.42;11.30;;;;;;;6.50;65.51;100939.38;4937705;28;20461;-79
2023/03/05 04:00:14;;;;;;;16.80;10.73;;;;;;;6.32;64.85;100901.06;4945929;28;20299;-81
2023/03/05 04:02:51;;;;;;;16.85;11.02;;;;;;;6.44;65.00;100916.06;4950147;28;20093;-80
2023/03/05 04:05:36;;;;;;;15.75;11.15;;;;;;;6.51;64.95;100929.69;4973157;28;20104;-80
2023/03/05 04:08:12;;;;;;;18.05;11.00;;;;;;;6.43;64.75;100922.25;4961263;28;20480;-81
2023/03/05 04:10:39;;;;;;;20.77;11.18;;;;;;;6.26;64.67;100904.91;4958327;28;20071;-77
2023/03/05 04:13:06;;;;;;;16.05;10.93;;;;;;;6.07;65.07;100870.19;4948178;28;20411;-77
2023/03/05 04:15:41;;;;;;;14.57;11.70;;;;;;;6.07;65.11;100873.69;4939002;28;20268;-78
2023/03/05 04:18:17;;;;;;;14.50;11.05;;;;;;;6.44;64.90;100934.53;4954720;28;20177;-79
2023/03/05 04:20:47;;;;;;;30.23;11.43;;;;;;;6.06;65.16;100874.59;4961068;28;20488;-80
2023/03/05 04:23:20;;;;;;;19.95;11.30;;;;;;;6.18;64.94;100894.88;4957566;28;20561;-79
2023/03/05 04:28:43;;;;;;;14.23;9.90;;;;;;;6.33;64.58;100922.03;4961885;28;20327;-78
2023/03/05 04:31:23;;;;;;;14.73;10.27;;;;;;;6.39;64.84;100926.06;4947281;28;20132;-79
2023/03/05 04:33:50;;;;;;;16.25;9.43;;;;;;;6.40;64.31;100927.75;4978776;28;20057;-81
2023/03/05 04:36:17;;;;;;;16.50;10.45;;;;;;;5.92;64.20;100853.56;4973487;28;20054;-80
2023/03/05 04:38:43;;;;;;;13.93;10.00;;;;;;;6.28;64.23;100923.28;4978346;28;20046;-81
2023/03/05 04:41:10;;;;;;;16.08;10.27;;;;;;;5.92;64.62;100854.41;4980012;28;20049;-79
2023/03/05 04:43:37;;;;;;;15.88;9.00;;;;;;;6.22;64.90;100905.25;4968283;28;20077;-79
2023/03/05 04:46:05;;;;;;;19.90;10.63;;;;;;;6.38;65.35;100919.09;4937269;28;20542;-78
2023/03/05 04:48:38;;;;;;;18.98;10.10;;;;;;;6.04;64.96;100862.47;4975973;28;20046;-80
2023/03/05 04:51:05;;;;;;;24.17;11.77;;;;;;;6.30;64.95;100892.41;4983619;28;20045;-80
2023/03/05 04:53:32;;;;;;;19.38;11.18;;;;;;;6.08;65.35;100856.06;4974507;28;20049;-78
2023/03/05 04:56:01;;;;;;;17.10;11.23;;;;;;;6.46;65.55;100916.81;4957476;28;20737;-81
2023/03/05 04:58:33;;;;;;;17.60;10.65;;;;;;;6.45;65.52;100912.47;4961190;28;20052;-80
2023/03/05 05:01:07;;;;;;;15.30;9.50;;;;;;;6.41;65.43;100893.38;4979015;28;20054;-81
2023/03/05 05:03:44;;;;;;;18.88;10.55;;;;;;;6.47;64.97;100894.75;4963201;28;20065;-81
2023/03/05 05:06:23;;;;;;;13.63;10.25;;;;;;;6.54;65.27;100897.81;4965589;28;20152;-79
2023/03/05 05:08:49;;;;;;;15.43;9.77;;;;;;;6.69;65.35;100909.13;4987537;28;20115;-78
2023/03/05 05:11:33;;;;;;;18.67;11.00;;;;;;;6.55;65.35;100887.19;4963422;28;20068;-80
2023/03/05 05:14:04;;;;;;;18.80;11.32;;;;;;;6.70;65.41;100914.31;4959360;28;20293;-81
2023/03/05 05:16:40;;;;;;;21.38;11.15;;;;;;;6.68;64.51;100899.53;4956567;28;20057;-79
2023/03/05 05:19:09;;;;;;;17.77;11.15;;;;;;;6.46;64.72;100861.44;4951913;28;20080;-81
2023/03/05 05:21:36;;;;;;;17.70;11.00;;;;;;;6.71;65.39;100880.84;4980201;28;20052;-81
2023/03/05 05:24:04;;;;;;;18.10;10.10;;;;;;;5.96;64.90;100750.50;4984790;28;20054;-79
2023/03/05 05:26:33;;;;;;;19.58;11.07;;;;;;;6.79;64.86;100897.00;4979979;28;20083;-81
2023/03/05 05:29:10;;;;;;;19.90;9.95;;;;;;;5.65;64.91;100738.50;4954077;28;20454;-80
2023/03/05 05:31:47;;;;;;;17.23;11.77;;;;;;;6.53;65.77;100896.13;4988839;28;20253;-81
2023/03/05 05:34:17;;;;;;;15.20;10.60;;;;;;;6.25;65.81;100828.59;4977544;28;20589;-80
2023/03/05 05:36:52;;;;;;;18.17;9.98;;;;;;;6.37;65.24;100860.25;4962183;28;20405;-80
2023/03/05 05:39:22;;;;;;;16.70;10.43;;;;;;;6.70;65.23;100908.16;4994796;28;20399;-79
2023/03/05 05:41:50;;;;;;;19.70;11.00;;;;;;;6.49;65.13;100884.94;4982660;28;20163;-80
2023/03/05 05:44:17;;;;;;;17.02;11.95;;;;;;;6.49;65.54;100907.84;4977405;28;20057;-78
2023/03/05 05:46:49;;;;;;;18.30;11.07;;;;;;;6.44;65.79;100912.59;4968748;28;20448;-79
2023/03/05 05:49:16;;;;;;;18.77;10.85;;;;;;;6.41;66.01;100913.63;4980086;28;20053;-80
2023/03/05 05:51:45;;;;;;;17.50;11.70;;;;;;;5.96;66.55;100855.09;4984893;28;20049;-78
2023/03/05 05:54:13;;;;;;;15.32;11.40;;;;;;;6.31;66.34;100899.34;4961458;28;20491;-79
2023/03/05 05:56:45;;;;;;;15.60;10.93;;;;;;;6.49;66.39;100897.28;4950938;28;20350;-81
2023/03/05 05:59:12;;;;;;;18.00;11.38;;;;;;;6.58;65.72;100913.34;4978664;28;20409;-80
2023/03/05 06:01:52;;;;;;;18.20;10.30;;;;;;;6.47;65.18;100883.38;4977108;28;20746;-80
2023/03/05 06:04:19;;;;;;;20.42;10.40;;;;;;;6.31;65.49;100865.06;4986069;28;20088;-80
2023/03/05 06:06:49;;;;;;;17.63;10.35;;;;;;;6.48;65.77;100901.72;4962317;28;20289;-81
2023/03/05 06:09:15;;;;;;;16.80;10.55;;;;;;;6.26;65.92;100888.25;4970404;28;20408;-80
2023/03/05 06:11:52;;;;;;;15.57;9.93;;;;;;;6.32;66.20;100908.97;4981612;28;20056;-80
2023/03/05 06:14:25;;;;;;;15.48;10.75;;;;;;;6.05;66.35;100891.38;5003404;28;20053;-78
2023/03/05 06:16:56;;;;;;;16.15;10.68;;;;;;;6.25;65.97;100918.22;4988706;28;20111;-81
2023/03/05 06:19:29;;;;;;;20.05;11.07;;;;;;;6.14;66.49;100909.25;4974499;28;20059;-81
2023/03/05 06:21:56;;;;;;;14.68;10.45;;;;;;;6.05;66.32;100901.91;4948428;28;20438;-77
2023/03/05 06:24:30;;;;;;;21.70;11.65;;;;;;;6.16;66.42;100914.38;4952267;28;20166;-78
2023/03/05 06:27:14;;;;;;;18.35;11.10;;;;;;;6.26;66.54;100910.19;4969310;28;20060;-79
2023/03/05 06:29:45;;;;;;;16.33;11.25;;;;;;;6.06;66.64;100840.34;4963419;28;20149;-78
2023/03/05 06:32:21;;;;;;;15.25;10.93;;;;;;;6.43;65.80;100890.63;4973058;28;20374;-78
2023/03/05 06:34:49;;;;;;;22.30;11.88;;;;;;;6.52;65.77;100908.47;4958778;28;20247;-80
2023/03/05 06:37:19;;;;;;;26.08;12.23;;;;;;;6.38;65.71;100871.63;4970514;28;20057;-79
2023/03/05 06:39:46;;;;;;;18.83;11.88;;;;;;;6.28;65.72;100844.19;4971019;28;20084;-80
2023/03/05 06:42:18;;;;;;;17.27;10.73;;;;;;;6.77;65.70;100920.00;4980163;28;20412;-80
2023/03/05 06:44:45;;;;;;;25.15;11.75;;;;;;;6.71;65.77;100915.16;4971224;28;20056;-79
2023/03/05 06:47:13;;;;;;;19.05;12.43;;;;;;;6.69;66.12;100917.06;4988296;28;20080;-80
2023/03/05 06:49:40;;;;;;;19.02;12.18;;;;;;;6.49;65.86;100890.22;5000406;28;20110;-80
2023/03/05 06:52:11;;;;;;;25.83;14.25;;;;;;;6.68;66.08;100926.75;5000104;28;20110;-80
2023/03/05 06:54:39;;;;;;;22.02;13.13;;;;;;;6.36;66.99;100863.84;4988486;28;20136;-80
2023/03/05 06:57:12;;;;;;;23.25;12.35;;;;;;;6.72;66.61;100922.13;5005228;28;20045;-80
2023/03/05 06:59:45;;;;;;;19.37;12.50;;;;;;;6.34;66.99;100855.19;4984231;28;20558;-80
2023/03/05 07:02:19;;;;;;;26.75;13.35;;;;;;;6.80;67.16;100925.94;4972897;28;20343;-81
2023/03/05 07:04:46;;;;;;;24.67;12.15;;;;;;;6.95;66.87;100931.13;4974933;28;20520;-81
2023/03/05 07:07:14;;;;;;;23.13;12.75;;;;;;;6.66;66.92;100873.25;4980981;28;20522;-80
2023/03/05 07:09:49;;;;;;;20.27;11.98;;;;;;;7.11;66.40;100933.53;4984421;28;20656;-81
2023/03/05 07:12:15;;;;;;;18.30;12.32;;;;;;;6.70;66.10;100853.63;4984315;28;20065;-81
2023/03/05 07:14:52;;;;;;;21.02;11.60;;;;;;;7.17;64.85;100914.66;4970056;28;20060;-80
2023/03/05 07:17:23;;;;;;;15.63;11.77;;;;;;;7.40;64.50;100935.00;4979633;28;20473;-80
2023/03/05 07:19:50;;;;;;;26.10;13.73;;;;;;;7.48;63.08;100935.31;5002847;28;20289;-81
2023/03/05 07:22:17;;;;;;;25.55;13.10;;;;;;;7.53;63.84;100915.66;4999094;28;20072;-80
2023/03/05 07:24:47;;;;;;;19.70;13.57;;;;;;;7.14;62.94;100840.94;4990010;28;20317;-76
2023/03/05 07:27:16;;;;;;;21.45;14.43;;;;;;;7.29;63.49;100863.59;4996581;28;20310;-79
2023/03/05 07:29:44;;;;;;;23.23;13.95;;;;;;;7.80;62.67;100941.91;4994551;28;20578;-80
2023/03/05 07:32:14;;;;;;;27.20;13.77;;;;;;;7.78;62.86;100923.50;4996067;28;20281;-82
2023/03/05 07:34:40;;;;;;;22.73;13.45;;;;;;;7.73;62.90;100908.94;5024281;28;20338;-78
2023/03/05 07:37:09;;;;;;;24.65;14.13;;;;;;;7.73;62.91;100899.19;4996999;28;20131;-79
2023/03/05 07:39:36;;;;;;;22.98;13.75;;;;;;;7.78;62.61;100891.78;4965259;28;20506;-80
2023/03/05 07:42:07;;;;;;;21.20;14.20;;;;;;;8.09;62.91;100932.69;4975709;28;20056;-80
2023/03/05 07:44:39;;;;;;;20.25;13.95;;;;;;;8.21;63.00;100927.47;4986406;28;20394;-81
2023/03/05 07:47:06;;;;;;;27.25;13.77;;;;;;;8.26;62.76;100935.91;4989363;28;20045;-80
2023/03/05 07:49:34;;;;;;;25.67;14.27;;;;;;;8.45;61.99;100938.06;4987080;28;20049;-79
2023/03/05 07:52:00;;;;;;;23.48;13.55;;;;;;;8.41;61.08;100904.84;4997791;28;20045;-79
2023/03/05 07:54:27;;;;;;;24.33;13.68;;;;;;;8.47;60.91;100912.31;4979728;28;20049;-81
2023/03/05 07:56:57;;;;;;;19.35;13.18;;;;;;;8.74;62.05;100934.06;4985906;28;20053;-81
2023/03/05 07:59:23;;;;;;;21.88;14.48;;;;;;;8.82;60.96;100938.78;5010425;28;20045;-79
2023/03/05 08:01:50;;;;;;;22.20;13.88;;;;;;;8.84;60.40;100928.91;4983734;28;20306;-79
2023/03/05 08:04:24;;;;;;;23.08;14.20;;;;;;;8.90;60.24;100935.53;4981498;28;20532;-80
2023/03/05 08:07:35;;;;;;;23.67;14.52;;;;;;;8.97;60.65;100936.75;4980543;28;20261;-79
2023/03/05 08:10:06;;;;;;;16.33;12.00;;;;;;;9.10;61.75;100918.97;4938470;28;21100;-77
2023/03/05 08:12:33;;;;;;;15.30;9.90;;;;;;;8.80;61.78;100826.03;4959936;28;20065;-80
2023/03/05 08:15:07;;;;;;;21.30;14.13;;;;;;;9.62;59.58;100925.44;4942886;28;20621;-78
2023/03/05 08:17:38;;;;;;;26.52;14.20;;;;;;;9.29;59.03;100886.56;4965929;28;20464;-81
2023/03/05 08:20:09;;;;;;;22.40;13.95;;;;;;;9.34;59.58;100900.28;4948796;28;20344;-79
2023/03/05 08:22:49;;;;;;;22.85;14.43;;;;;;;9.43;59.18;100911.97;4979985;28;20095;-80
2023/03/05 08:25:19;;;;;;;20.75;13.95;;;;;;;9.46;60.69;100903.78;4962837;28;20455;-79
2023/03/05 08:27:51;;;;;;;19.95;13.20;;;;;;;9.49;58.83;100916.81;4972908;28;20444;-79
2023/03/05 08:30:25;;;;;;;23.88;14.00;;;;;;;9.55;59.19;100929.56;4946122;28;20466;-80
2023/03/05 08:33:05;;;;;;;20.85;13.32;;;;;;;9.29;59.66;100894.50;4950991;28;20427;-79
2023/03/05 08:35:35;;;;;;;21.23;12.45;;;;;;;9.27;59.26;100877.03;4971845;28;20442;-78
2023/03/05 08:38:04;;;;;;;;;;;;;;;9.61;58.77;100925.56;4949390;28;20332;-80
2023/03/05 08:40:31;;;;;;;19.95;12.52;;;;;;;9.54;59.49;100905.81;4943777;28;20610;-78
2023/03/05 08:43:00;;;;;;;19.15;11.82;;;;;;;9.75;59.12;100935.06;4970181;28;20045;-78
2023/03/05 08:45:27;;;;;;;24.58;13.13;;;;;;;9.66;58.06;100902.22;4951284;28;20289;-78
2023/03/05 08:48:02;;;;;;;19.38;12.02;;;;;;;9.74;58.55;100906.88;4972397;28;20626;-78
2023/03/05 08:50:37;;;;;;;18.67;12.77;;;;;;;9.87;58.51;100918.16;4967428;28;20052;-79
2023/03/05 08:53:28;;;;;;;20.85;12.25;;;;;;;9.53;59.40;100841.38;4998720;28;20061;-78
2023/03/05 08:55:58;;;;;;;22.25;11.27;;;;;;;9.90;59.50;100880.78;4946787;28;20478;-78
2023/03/05 08:58:25;;;;;;;20.42;11.57;;;;;;;10.17;59.60;100906.88;4969168;28;20368;-77
2023/03/05 09:00:55;;;;;;;14.07;9.88;;;;;;;10.30;59.85;100897.94;4962033;28;20072;-78
2023/03/05 09:03:22;;;;;;;15.05;11.07;;;;;;;10.25;58.86;100869.94;4969659;28;20065;-79
2023/03/05 09:06:06;;;;;;;20.15;11.95;;;;;;;10.52;57.44;100904.94;4945529;28;20077;-78
2023/03/05 09:08:38;;;;;;;13.25;10.18;;;;;;;10.62;58.65;100893.41;4968784;28;20046;-81
2023/03/05 09:11:09;;;;;;;16.85;10.88;;;;;;;10.91;58.83;100888.28;4972314;28;20069;-79
2023/03/05 09:13:46;;;;;;;17.48;10.38;;;;;;;10.95;58.50;100872.06;4971919;28;20547;-80
2023/03/05 09:16:16;;;;;;;18.25;9.43;;;;;;;10.55;56.17;100794.03;4974113;28;20219;-79
2023/03/05 09:18:43;;;;;;;17.35;10.13;;;;;;;11.06;56.99;100875.47;4995173;28;20084;-78
2023/03/05 09:21:13;;;;;;;17.23;10.93;;;;;;;11.22;55.36;100888.28;4962838;28;20050;-79
2023/03/05 09:23:40;;;;;;;16.75;10.65;;;;;;;11.32;55.26;100886.50;4992452;28;20065;-81
2023/03/05 09:26:10;;;;;;;20.95;10.02;;;;;;;11.43;55.49;100884.72;4990765;28;20266;-80
2023/03/05 09:28:41;;;;;;;10.88;7.78;;;;;;;11.40;52.42;100856.59;4998058;28;20046;-79
2023/03/05 09:31:22;;;;;;;14.32;8.48;;;;;;;11.60;51.58;100868.09;4979079;28;20572;-79
2023/03/05 09:33:53;;;;;;;13.80;8.55;;;;;;;11.48;53.83;100808.91;4990261;28;20057;-80
2023/03/05 09:36:30;;;;;;;12.88;8.45;;;;;;;12.07;54.63;100809.81;4966922;28;20463;-79
2023/03/05 09:39:03;;;;;;;14.25;9.05;;;;;;;12.43;54.16;100876.63;4939361;28;20054;-80
2023/03/05 09:42:05;;;;;;;16.30;9.30;;;;;;;12.47;51.34;100882.50;4960459;28;20899;-79
2023/03/05 09:44:41;;;;;;;19.55;10.40;;;;;;;12.30;52.69;100854.75;4961291;28;20050;-76
2023/03/05 09:47:29;;;;;;;13.93;8.13;;;;;;;12.79;53.25;100876.81;4978334;28;20454;-79
2023/03/05 09:50:34;;;;;;;16.48;8.63;;;;;;;12.52;52.68;100817.16;4953772;28;20082;-80
2023/03/05 09:53:22;;;;;;;18.55;9.23;;;;;;;12.85;51.26;100860.28;4953001;28;20463;-80
2023/03/05 09:55:53;;;;;;;19.10;8.55;;;;;;;12.77;51.62;100814.88;4948778;28;20343;-79
2023/03/05 09:58:43;;;;;;;19.00;9.35;;;;;;;12.70;49.74;100808.44;4967482;28;20049;-82
2023/03/05 10:01:21;;;;;;;13.23;8.52;;;;;;;12.87;49.92;100863.63;4969140;28;20644;-78
2023/03/05 10:04:17;;;;;;;16.02;9.43;;;;;;;12.95;51.51;100866.41;4968741;28;20066;-80
2023/03/05 10:07:01;;;;;;;15.27;9.30;;;;;;;13.09;48.22;100858.94;4957596;28;20396;-79
2023/03/05 10:09:56;;;;;;;18.55;8.57;;;;;;;13.28;48.71;100861.53;4941462;28;20292;-78
2023/03/05 10:12:37;;;;;;;13.18;8.00;;;;;;;13.30;49.50;100859.56;4958029;28;20260;-80
2023/03/05 10:15:50;;;;;;;12.80;9.45;;;;;;;13.33;49.08;100858.44;4962902;28;20526;-79
2023/03/05 10:18:44;;;;;;;14.35;8.20;;;;;;;13.28;50.10;100743.38;4988329;28;20568;-79
2023/03/05 10:21:35;;;;;;;17.10;9.13;;;;;;;13.75;49.38;100857.91;4989231;28;20057;-79
2023/03/05 10:24:29;;;;;;;17.90;10.43;;;;;;;13.45;47.49;100825.25;5011976;28;20057;-80
2023/03/05 10:27:38;;;;;;;15.30;8.85;;;;;;;13.63;48.06;100846.59;4961696;28;20053;-78
2023/03/05 10:30:24;;;;;;;18.80;7.93;;;;;;;13.34;48.73;100722.28;4889039;28;20555;-79
2023/03/05 10:33:06;;;;;;;14.18;8.35;;;;;;;14.02;49.92;100838.31;4905161;28;20641;-78
2023/03/05 10:36:02;;;;;;;13.30;9.10;;;;;;;13.92;49.23;100833.06;4959330;28;20152;-78
2023/03/05 10:38:34;;;;;;;14.57;8.60;;;;;;;14.12;47.98;100780.34;4963544;28;20074;-79
2023/03/05 10:41:51;;;;;;;21.05;10.70;;;;;;;14.26;47.51;100824.34;4977449;28;20048;-78
2023/03/05 10:44:43;;;;;;;16.95;9.45;;;;;;;14.28;47.99;100801.00;4961810;28;20072;-77
2023/03/05 10:47:19;;;;;;;24.15;11.80;;;;;;;14.50;45.94;100802.31;4977464;28;20107;-78
2023/03/05 10:49:58;;;;;;;21.15;10.02;;;;;;;14.71;46.75;100810.81;4940172;28;20223;-79
2023/03/05 10:52:34;;;;;;;15.20;9.85;;;;;;;14.78;47.12;100804.84;4952186;28;20400;-78
2023/03/05 10:55:12;;;;;;;14.45;8.70;;;;;;;15.02;47.09;100783.56;4968082;28;20097;-76
2023/03/05 10:57:39;;;;;;;15.55;8.98;;;;;;;14.71;47.86;100792.13;4963438;28;20548;-76
2023/03/05 11:00:27;;;;;;;13.77;7.32;;;;;;;14.94;47.96;100775.53;4964807;28;20556;-80
2023/03/05 11:03:11;;;;;;;12.05;9.25;;;;;;;14.64;48.14;100742.97;4956540;28;20058;-79
2023/03/05 11:05:59;;;;;;;19.55;10.35;;;;;;;13.89;46.58;100663.41;4959256;28;20365;-80
2023/03/05 11:08:35;;;;;;;18.63;10.70;;;;;;;14.68;46.25;100775.56;4957345;28;20113;-79
2023/03/05 11:11:18;;;;;;;13.35;8.57;;;;;;;14.67;47.18;100777.41;4956620;28;20299;-80
2023/03/05 11:13:52;;;;;;;18.35;10.27;;;;;;;15.03;45.55;100785.25;4968316;28;20560;-78
2023/03/05 11:16:27;;;;;;;14.73;7.97;;;;;;;15.36;47.30;100791.56;4975600;28;20339;-78
2023/03/05 11:19:15;;;;;;;11.63;7.68;;;;;;;15.00;47.57;100728.56;5003122;28;20054;-79
2023/03/05 11:22:03;;;;;;;9.15;6.93;;;;;;;15.09;47.78;100751.69;4985990;28;20041;-77
2023/03/05 11:24:30;;;;;;;14.88;8.90;;;;;;;15.08;46.41;100750.84;4998893;28;20057;-80
2023/03/05 11:27:02;;;;;;;16.60;10.52;;;;;;;15.04;45.84;100762.84;4986417;28;20460;-79
2023/03/05 11:29:33;;;;;;;18.58;11.13;;;;;;;15.25;45.69;100750.91;4971909;28;20099;-77
2023/03/05 11:32:30;;;;;;;14.60;9.23;;;;;;;15.43;45.10;100751.59;4965072;28;20178;-79
2023/03/05 11:35:00;;;;;;;15.70;10.32;;;;;;;15.29;45.74;100688.03;4985474;28;20042;-79
2023/03/05 11:37:31;;;;;;;16.98;9.93;;;;;;;15.52;45.63;100731.88;4995942;28;20460;-79
2023/03/05 11:40:26;;;;;;;16.57;9.10;;;;;;;15.49;45.60;100713.50;5003020;28;20048;-79
2023/03/05 11:42:57;;;;;;;16.77;11.65;;;;;;;15.39;45.61;100715.50;4972423;28;20385;-79
2023/03/05 11:45:32;;;;;;;19.65;12.40;;;;;;;15.13;45.50;100672.81;4997005;28;20199;-79
2023/03/05 11:48:17;;;;;;;12.25;7.80;;;;;;;15.41;46.72;100724.16;4978165;28;20076;-80
2023/03/05 11:50:50;;;;;;;12.32;7.65;;;;;;;15.16;47.96;100716.09;4977352;28;20284;-79
2023/03/05 11:53:24;;;;;;;17.73;10.35;;;;;;;14.78;48.02;100684.56;4967076;28;20073;-80